Time;durP1;ratioP1;P1;durP2;ratioP2;P2;SDS_P1;SDS_P2;PMS_P1;PMS_P2;Temp;Humidity;BMP_temperature;BMP_pressure;BME280_temperature;BME280_humidity;BME280_pressure;Samples;Min_cycle;Max_cycle;Signal;HPM_P1;HPM_P2
2023/08/27 00:01:49;;;;;;;5.80;5.20;;;17.50;99.90;;;;;;4969308;28;20042;-82
2023/08/27 00:04:15;;;;;;;5.68;5.18;;;18.00;99.90;;;;;;4971786;28;20494;-84
2023/08/27 00:06:40;;;;;;;9.05;6.00;;;17.70;99.90;;;;;;4973020;28;20019;-81
2023/08/27 00:09:06;;;;;;;6.22;5.70;;;17.70;99.90;;;;;;4968397;28;20364;-83
2023/08/27 00:11:32;;;;;;;5.40;4.97;;;17.60;99.90;;;;;;4971001;28;20019;-84
2023/08/27 00:13:57;;;;;;;6.38;5.85;;;17.90;99.90;;;;;;4969134;28;20035;-84
2023/08/27 00:16:23;;;;;;;10.23;5.45;;;17.60;99.90;;;;;;4968446;28;20404;-83
2023/08/27 00:18:49;;;;;;;6.45;5.88;;;17.60;99.90;;;;;;4959652;28;20047;-83
2023/08/27 00:21:14;;;;;;;8.38;5.78;;;17.60;99.90;;;;;;4963389;28;20110;-83
2023/08/27 00:23:40;;;;;;;5.88;5.35;;;17.60;99.90;;;;;;4965867;28;20125;-82
2023/08/27 00:26:05;;;;;;;6.30;5.70;;;17.50;99.90;;;;;;4973369;28;20105;-82
2023/08/27 00:28:31;;;;;;;6.55;5.72;;;17.50;99.90;;;;;;4961110;28;20023;-82
2023/08/27 00:31:04;;;;;;;6.55;5.63;;;17.40;99.90;;;;;;4958437;28;20019;-82
2023/08/27 00:33:30;;;;;;;6.22;5.32;;;17.60;99.90;;;;;;4961275;28;20035;-82
2023/08/27 00:35:56;;;;;;;7.10;5.65;;;17.40;99.90;;;;;;4958177;28;20062;-82
2023/08/27 00:38:21;;;;;;;6.18;5.57;;;17.40;99.90;;;;;;4964527;28;20035;-82
2023/08/27 00:40:48;;;;;;;8.90;5.70;;;17.90;99.90;;;;;;4957017;28;20082;-83
2023/08/27 00:43:14;;;;;;;5.30;4.90;;;17.40;99.90;;;;;;4957322;28;20494;-82
2023/08/27 00:45:39;;;;;;;8.25;5.82;;;17.40;99.90;;;;;;4967493;28;20031;-82
2023/08/27 00:48:06;;;;;;;5.63;4.80;;;17.40;99.90;;;;;;4959443;28;20042;-82
2023/08/27 00:50:32;;;;;;;5.88;5.38;;;17.40;99.90;;;;;;4962470;28;20074;-82
2023/08/27 00:52:57;;;;;;;6.18;5.57;;;17.40;99.90;;;;;;4954662;28;20042;-83
2023/08/27 00:55:23;;;;;;;8.77;5.43;;;17.40;99.90;;;;;;4972762;28;20574;-82
2023/08/27 00:57:49;;;;;;;9.60;5.25;;;17.90;99.90;;;;;;4970731;28;20034;-83
2023/08/27 01:00:16;;;;;;;5.60;4.80;;;17.40;99.90;;;;;;4970928;28;20037;-82
2023/08/27 01:02:43;;;;;;;6.40;4.70;;;17.40;99.90;;;;;;4976256;28;20027;-82
2023/08/27 01:05:11;;;;;;;6.30;4.70;;;17.40;99.90;;;;;;4965929;28;20439;-83
2023/08/27 01:07:43;;;;;;;6.15;4.53;;;17.40;99.90;;;;;;4968812;28;20041;-83
2023/08/27 01:10:40;;;;;;;5.10;4.70;;;17.40;99.90;;;;;;4960566;28;20032;-82
2023/08/27 01:13:12;;;;;;;5.07;4.68;;;17.30;99.90;;;;;;4973140;28;20029;-82
2023/08/27 01:15:38;;;;;;;4.68;4.32;;;17.40;99.90;;;;;;4957115;28;20094;-82
2023/08/27 01:18:06;;;;;;;6.28;4.57;;;17.40;99.90;;;;;;4951967;29;20039;-82
2023/08/27 01:20:31;;;;;;;4.68;4.30;;;17.30;99.90;;;;;;4964584;28;20058;-82
2023/08/27 01:22:57;;;;;;;4.63;4.22;;;17.30;99.90;;;;;;4953763;29;20097;-82
2023/08/27 01:25:34;;;;;;;4.03;3.63;;;17.20;99.90;;;;;;4969814;28;20035;-80
2023/08/27 01:28:09;;;;;;;4.20;3.80;;;17.20;99.90;;;;;;4973802;28;20085;-82
2023/08/27 01:30:55;;;;;;;6.25;4.05;;;17.30;99.90;;;;;;4968823;28;20027;-82
2023/08/27 01:33:26;;;;;;;4.68;4.22;;;17.20;99.90;;;;;;4968937;28;20035;-82
2023/08/27 01:35:53;;;;;;;4.15;3.85;;;17.20;99.90;;;;;;4963551;28;20495;-81
2023/08/27 01:38:20;;;;;;;4.20;3.90;;;17.20;99.90;;;;;;4961127;28;20050;-81
2023/08/27 01:40:45;;;;;;;4.40;3.97;;;17.20;99.90;;;;;;4970297;28;20094;-82
2023/08/27 01:43:11;;;;;;;6.70;4.18;;;17.20;99.90;;;;;;4952534;29;20459;-82
2023/08/27 01:45:36;;;;;;;5.07;4.47;;;17.20;99.90;;;;;;4966922;28;20073;-82
2023/08/27 01:48:02;;;;;;;3.90;3.60;;;17.30;99.90;;;;;;4952183;29;20431;-81
2023/08/27 01:50:28;;;;;;;4.03;3.72;;;17.20;99.90;;;;;;4961184;28;20055;-82
2023/08/27 01:52:53;;;;;;;5.43;4.93;;;17.20;99.90;;;;;;4959952;28;20023;-82
2023/08/27 01:55:19;;;;;;;4.40;4.00;;;17.20;99.90;;;;;;4970972;28;20094;-82
2023/08/27 01:57:47;;;;;;;4.97;4.50;;;17.20;99.90;;;;;;4961977;28;20376;-82
2023/08/27 02:00:16;;;;;;;9.02;5.40;;;17.60;99.90;;;;;;4967685;28;20035;-82
2023/08/27 02:02:42;;;;;;;8.07;4.53;;;17.10;99.90;;;;;;4955906;29;20023;-82
2023/08/27 02:05:07;;;;;;;5.20;4.80;;;17.10;99.90;;;;;;4969231;28;20506;-82
2023/08/27 02:07:38;;;;;;;5.90;4.75;;;17.20;99.90;;;;;;4965906;28;20035;-82
2023/08/27 02:10:04;;;;;;;;;;;17.10;99.90;;;;;;4968751;28;20064;-83
2023/08/27 02:12:30;;;;;;;6.70;5.30;;;17.20;99.90;;;;;;4975860;28;19949;-82
2023/08/27 02:14:56;;;;;;;5.50;4.95;;;17.70;99.90;;;;;;4971396;28;20031;-82
2023/08/27 02:17:21;;;;;;;4.75;4.35;;;17.20;99.90;;;;;;4957611;29;20028;-82
2023/08/27 02:19:47;;;;;;;5.22;4.72;;;17.40;99.90;;;;;;4967946;28;20030;-82
2023/08/27 02:22:13;;;;;;;5.05;4.55;;;17.20;99.90;;;;;;4974779;28;20047;-82
2023/08/27 02:24:38;;;;;;;8.82;5.65;;;17.20;99.90;;;;;;4970548;28;20035;-82
2023/08/27 02:27:04;;;;;;;6.05;5.55;;;17.20;99.90;;;;;;4973000;28;20114;-82
2023/08/27 02:29:30;;;;;;;7.30;5.53;;;17.20;99.90;;;;;;4964088;28;20030;-82
2023/08/27 02:31:55;;;;;;;7.03;6.22;;;17.20;99.90;;;;;;4956341;29;20425;-82
2023/08/27 02:34:21;;;;;;;6.93;5.30;;;17.10;99.90;;;;;;4973066;28;20019;-82
2023/08/27 02:36:46;;;;;;;4.90;4.55;;;17.20;99.90;;;;;;4974721;28;20035;-82
2023/08/27 02:39:12;;;;;;;7.57;5.50;;;17.10;99.90;;;;;;4967690;28;20075;-83
2023/08/27 02:41:37;;;;;;;6.13;5.50;;;17.10;99.90;;;;;;4959290;28;20027;-82
2023/08/27 02:44:03;;;;;;;6.10;5.30;;;17.10;99.90;;;;;;4969167;28;20031;-83
2023/08/27 02:46:29;;;;;;;5.55;5.15;;;17.10;99.90;;;;;;4975620;28;20038;-82
2023/08/27 02:48:54;;;;;;;6.47;5.32;;;17.10;99.90;;;;;;4966939;28;20014;-82
2023/08/27 02:51:20;;;;;;;9.57;5.65;;;17.10;99.90;;;;;;4975268;28;20035;-82
2023/08/27 02:53:50;;;;;;;8.43;5.38;;;17.10;99.90;;;;;;4964097;28;20030;-82
2023/08/27 02:56:19;;;;;;;6.63;5.85;;;17.20;99.90;;;;;;4975238;28;20023;-82
2023/08/27 02:58:48;;;;;;;5.47;4.97;;;17.10;99.90;;;;;;4970161;28;20043;-82
2023/08/27 03:01:20;;;;;;;8.27;5.50;;;17.10;99.90;;;;;;4963027;28;20027;-82
2023/08/27 03:03:49;;;;;;;7.45;5.20;;;17.10;99.90;;;;;;4973520;28;20471;-82
2023/08/27 03:06:15;;;;;;;9.43;5.27;;;17.10;99.90;;;;;;4976679;28;20069;-82
2023/08/27 03:08:41;;;;;;;6.85;6.05;;;17.10;99.90;;;;;;4972393;28;20275;-82
2023/08/27 03:11:07;;;;;;;6.18;5.68;;;17.10;99.90;;;;;;4969033;29;20046;-82
2023/08/27 03:13:32;;;;;;;6.00;5.38;;;17.10;99.90;;;;;;4975600;28;20027;-82
2023/08/27 03:15:58;;;;;;;6.22;5.63;;;17.10;99.90;;;;;;4972086;28;20035;-82
2023/08/27 03:18:24;;;;;;;8.27;5.85;;;17.10;99.90;;;;;;4973472;28;20518;-83
2023/08/27 03:20:50;;;;;;;7.38;5.20;;;17.10;99.90;;;;;;4974052;28;20106;-82
2023/08/27 03:23:16;;;;;;;9.73;6.00;;;17.10;99.90;;;;;;4972174;28;20138;-82
2023/08/27 03:25:42;;;;;;;6.50;5.10;;;17.50;99.90;;;;;;4972139;28;20026;-82
2023/08/27 03:28:07;;;;;;;7.85;6.10;;;17.20;99.90;;;;;;4961624;28;20027;-82
2023/08/27 03:30:33;;;;;;;6.63;4.75;;;17.10;99.90;;;;;;4974713;28;20045;-82
2023/08/27 03:32:58;;;;;;;6.97;5.82;;;17.20;99.90;;;;;;4972270;28;20450;-82
2023/08/27 03:35:24;;;;;;;6.30;5.28;;;17.30;99.90;;;;;;4974651;28;20031;-82
2023/08/27 03:37:49;;;;;;;6.05;5.50;;;17.20;99.90;;;;;;4958256;28;20031;-82
2023/08/27 03:40:15;;;;;;;6.07;5.32;;;17.20;99.90;;;;;;4955833;28;20109;-82
2023/08/27 03:42:40;;;;;;;10.75;5.82;;;17.20;99.90;;;;;;4964989;28;20023;-82
2023/08/27 03:45:07;;;;;;;6.93;5.25;;;17.20;99.90;;;;;;4955576;29;20364;-82
2023/08/27 03:47:32;;;;;;;5.93;5.20;;;17.20;99.90;;;;;;4969333;28;20118;-82
2023/08/27 03:49:58;;;;;;;6.38;5.68;;;17.20;99.90;;;;;;4974935;28;20122;-82
2023/08/27 03:52:23;;;;;;;9.35;6.00;;;17.60;99.90;;;;;;4971624;28;20038;-82
2023/08/27 03:54:49;;;;;;;7.00;5.93;;;17.20;99.90;;;;;;4957350;28;20039;-83
2023/08/27 03:57:14;;;;;;;16.25;6.47;;;17.10;99.90;;;;;;4974331;28;20190;-82
2023/08/27 03:59:40;;;;;;;8.88;6.30;;;17.10;99.90;;;;;;4973893;28;20070;-82
2023/08/27 04:02:06;;;;;;;8.80;6.45;;;17.20;99.90;;;;;;4973498;28;20054;-82
2023/08/27 04:04:32;;;;;;;17.45;6.45;;;17.20;99.90;;;;;;4959319;28;20023;-82
2023/08/27 04:06:58;;;;;;;9.65;6.85;;;17.20;99.90;;;;;;4966066;28;20046;-82
2023/08/27 04:09:24;;;;;;;9.45;5.95;;;17.20;99.90;;;;;;4973398;28;20023;-82
2023/08/27 04:11:53;;;;;;;7.30;5.90;;;17.10;99.90;;;;;;4961494;28;20034;-82
2023/08/27 04:14:18;;;;;;;7.45;5.15;;;17.10;99.90;;;;;;4960823;28;20034;-82
2023/08/27 04:16:44;;;;;;;7.22;5.57;;;17.10;99.90;;;;;;4970471;28;20031;-82
2023/08/27 04:19:09;;;;;;;8.43;6.72;;;18.10;99.90;;;;;;4968048;28;20480;-82
2023/08/27 04:21:35;;;;;;;8.15;5.85;;;17.20;99.90;;;;;;4966248;28;20038;-82
2023/08/27 04:24:01;;;;;;;12.15;6.90;;;17.30;99.90;;;;;;4958979;28;20109;-82
2023/08/27 04:26:26;;;;;;;5.20;4.70;;;17.10;99.90;;;;;;4972507;28;20031;-82
2023/08/27 04:28:54;;;;;;;7.55;4.30;;;17.10;99.90;;;;;;4966213;28;20034;-82
2023/08/27 04:31:21;;;;;;;3.33;2.92;;;17.10;99.90;;;;;;4958798;28;20027;-82
2023/08/27 04:33:46;;;;;;;8.15;3.70;;;17.10;99.90;;;;;;4972275;28;20031;-82
2023/08/27 04:36:12;;;;;;;4.50;3.33;;;17.10;99.90;;;;;;4974159;28;20045;-82
2023/08/27 04:38:37;;;;;;;3.45;2.30;;;17.30;99.90;;;;;;4964774;28;20491;-82
2023/08/27 04:41:03;;;;;;;6.85;2.80;;;17.30;99.90;;;;;;4959391;28;20037;-83
2023/08/27 04:43:29;;;;;;;3.75;3.30;;;17.20;99.90;;;;;;4954574;29;20497;-81
2023/08/27 04:45:56;;;;;;;7.05;3.47;;;17.20;99.90;;;;;;4960772;28;20033;-82
2023/08/27 04:48:21;;;;;;;5.85;3.33;;;17.20;99.90;;;;;;4971978;28;20034;-83
2023/08/27 04:50:48;;;;;;;4.15;3.70;;;17.20;99.90;;;;;;4973411;28;20529;-82
2023/08/27 04:53:14;;;;;;;5.28;4.25;;;17.30;99.90;;;;;;4962858;28;20027;-82
2023/08/27 04:55:39;;;;;;;4.25;3.67;;;17.20;99.90;;;;;;4964495;28;20077;-82
2023/08/27 04:58:07;;;;;;;6.68;4.50;;;17.40;99.90;;;;;;4966905;28;20395;-82
2023/08/27 05:00:33;;;;;;;5.35;4.25;;;17.20;99.90;;;;;;4964133;28;20027;-82
2023/08/27 05:02:58;;;;;;;6.63;4.70;;;17.40;99.90;;;;;;4970110;28;20533;-82
2023/08/27 05:05:24;;;;;;;5.30;4.10;;;17.30;99.90;;;;;;4973625;28;20027;-82
2023/08/27 05:07:51;;;;;;;3.30;3.00;;;17.50;99.90;;;;;;4968875;28;20434;-82
2023/08/27 05:10:17;;;;;;;4.85;3.08;;;17.20;99.90;;;;;;4966988;28;20031;-82
2023/08/27 05:12:42;;;;;;;3.00;2.75;;;17.20;99.90;;;;;;4960159;28;20363;-82
2023/08/27 05:15:08;;;;;;;6.00;3.03;;;17.10;99.90;;;;;;4959068;28;20031;-81
2023/08/27 05:17:34;;;;;;;9.82;3.30;;;17.20;99.90;;;;;;4972454;28;20525;-81
2023/08/27 05:19:59;;;;;;;9.73;3.08;;;17.20;99.90;;;;;;4973524;28;20035;-81
2023/08/27 05:22:25;;;;;;;9.05;3.80;;;17.20;99.90;;;;;;4971524;28;20372;-82
2023/08/27 05:24:51;;;;;;;7.22;4.53;;;17.20;99.90;;;;;;4954102;28;20061;-82
2023/08/27 05:27:16;;;;;;;8.95;5.15;;;17.20;99.90;;;;;;4956917;28;20151;-81
2023/08/27 05:29:42;;;;;;;9.63;6.32;;;17.10;99.90;;;;;;4970254;28;20077;-81
2023/08/27 05:32:07;;;;;;;6.88;6.28;;;17.20;99.90;;;;;;4961818;28;20031;-81
2023/08/27 05:34:33;;;;;;;7.78;6.95;;;17.10;99.90;;;;;;4968434;28;20039;-81
2023/08/27 05:36:58;;;;;;;6.97;6.32;;;17.10;99.90;;;;;;4971150;28;20391;-81
2023/08/27 05:39:24;;;;;;;9.45;6.95;;;17.10;99.90;;;;;;4969730;28;20045;-81
2023/08/27 05:41:50;;;;;;;6.97;6.38;;;17.10;99.90;;;;;;4971011;28;20027;-81
2023/08/27 05:44:16;;;;;;;8.32;7.10;;;17.10;99.90;;;;;;4968203;28;20049;-81
2023/08/27 05:46:41;;;;;;;7.82;6.68;;;17.00;99.90;;;;;;4969205;28;20438;-81
2023/08/27 05:49:07;;;;;;;7.03;6.05;;;17.00;99.90;;;;;;4968978;28;20050;-81
2023/08/27 05:51:32;;;;;;;7.82;6.05;;;17.50;99.90;;;;;;4968938;28;20035;-81
2023/08/27 05:53:58;;;;;;;15.75;7.80;;;17.00;99.90;;;;;;4969363;28;20036;-81
2023/08/27 05:56:26;;;;;;;6.32;5.82;;;17.00;99.90;;;;;;4969114;28;20034;-81
2023/08/27 05:58:52;;;;;;;9.40;6.68;;;17.20;99.90;;;;;;4970230;28;20387;-81
2023/08/27 06:01:17;;;;;;;9.57;6.40;;;17.00;99.90;;;;;;4972430;28;20023;-81
2023/08/27 06:03:43;;;;;;;13.07;6.65;;;17.00;99.90;;;;;;4970566;28;20073;-81
2023/08/27 06:06:08;;;;;;;13.18;6.78;;;16.90;99.90;;;;;;4971846;28;20573;-81
2023/08/27 06:08:34;;;;;;;6.70;6.10;;;16.90;99.90;;;;;;4971494;28;20062;-81
2023/08/27 06:10:59;;;;;;;9.90;7.57;;;16.90;99.90;;;;;;4971605;28;20026;-81
2023/08/27 06:13:25;;;;;;;11.40;7.57;;;16.90;99.90;;;;;;4971501;28;20019;-81
2023/08/27 06:15:51;;;;;;;10.52;6.15;;;16.90;99.90;;;;;;4970488;28;20027;-81
2023/08/27 06:18:17;;;;;;;8.52;6.25;;;16.90;99.90;;;;;;4971978;28;20161;-81
2023/08/27 06:20:43;;;;;;;8.73;6.13;;;16.90;99.90;;;;;;4969430;28;20042;-81
2023/08/27 06:23:08;;;;;;;9.63;6.65;;;16.90;99.90;;;;;;4971647;28;21081;-81
2023/08/27 06:25:34;;;;;;;6.65;6.05;;;17.00;99.90;;;;;;4970328;28;20030;-82
2023/08/27 06:28:03;;;;;;;5.72;5.22;;;17.10;99.90;;;;;;4958610;28;20121;-82
2023/08/27 06:30:29;;;;;;;7.28;5.72;;;17.00;99.90;;;;;;4965082;28;20035;-82
2023/08/27 06:32:55;;;;;;;5.72;5.25;;;17.00;99.90;;;;;;4956947;28;20522;-83
2023/08/27 06:35:21;;;;;;;10.40;5.95;;;17.00;99.90;;;;;;4966260;28;20030;-82
2023/08/27 06:37:46;;;;;;;10.70;6.57;;;17.00;99.90;;;;;;4965703;28;20049;-82
2023/08/27 06:40:13;;;;;;;8.20;6.32;;;17.00;99.90;;;;;;4963275;28;20035;-82
2023/08/27 06:42:40;;;;;;;12.82;5.75;;;17.90;99.90;;;;;;4961241;28;20031;-82
2023/08/27 06:45:06;;;;;;;6.53;5.63;;;17.00;99.90;;;;;;4972299;28;20479;-81
2023/08/27 06:47:32;;;;;;;8.93;5.78;;;17.10;99.90;;;;;;4969940;28;20034;-82
2023/08/27 06:49:58;;;;;;;8.82;6.00;;;17.10;99.90;;;;;;4968815;28;20038;-83
2023/08/27 06:52:23;;;;;;;9.82;6.03;;;17.10;99.90;;;;;;4973097;28;20050;-82
2023/08/27 06:54:49;;;;;;;10.07;6.32;;;17.10;99.90;;;;;;4962007;28;20043;-82
2023/08/27 06:57:15;;;;;;;8.98;7.50;;;17.00;99.90;;;;;;4959654;28;20079;-82
2023/08/27 07:02:27;;;;;;;10.30;7.63;;;17.00;99.90;;;;;;4965889;28;20030;-82
2023/08/27 07:04:55;;;;;;;9.23;8.25;;;17.00;99.90;;;;;;4966533;28;20031;-82
2023/08/27 07:07:20;;;;;;;9.95;8.80;;;17.10;99.90;;;;;;4964490;28;20039;-82
2023/08/27 07:09:46;;;;;;;12.50;8.40;;;17.00;99.90;;;;;;4967304;28;20041;-82
2023/08/27 07:12:12;;;;;;;10.60;9.23;;;17.10;99.90;;;;;;4959410;28;20026;-83
2023/08/27 07:14:38;;;;;;;12.90;8.60;;;17.00;99.90;;;;;;4963090;28;20031;-83
2023/08/27 07:17:03;;;;;;;9.63;8.45;;;17.00;99.90;;;;;;4942512;28;20487;-83
2023/08/27 07:19:29;;;;;;;8.23;7.45;;;17.00;99.90;;;;;;4971218;28;20519;-83
2023/08/27 07:21:55;;;;;;;12.73;8.73;;;17.00;99.90;;;;;;4971793;28;20114;-83
2023/08/27 07:24:20;;;;;;;10.70;7.97;;;17.00;99.90;;;;;;4971026;28;20041;-83
2023/08/27 07:26:46;;;;;;;11.32;8.13;;;17.00;99.90;;;;;;4967977;28;20031;-83
2023/08/27 07:29:11;;;;;;;11.65;8.48;;;17.10;99.90;;;;;;4967425;28;20098;-83
2023/08/27 07:31:37;;;;;;;10.10;8.70;;;17.10;99.90;;;;;;4972147;28;20047;-84
2023/08/27 07:34:02;;;;;;;17.45;9.35;;;17.20;99.90;;;;;;4971008;28;20094;-83
2023/08/27 07:36:28;;;;;;;11.95;9.95;;;17.70;99.90;;;;;;4967780;28;20050;-83
2023/08/27 07:38:54;;;;;;;12.05;9.00;;;17.20;99.90;;;;;;4965389;28;20047;-83
2023/08/27 07:41:19;;;;;;;11.02;9.07;;;17.10;99.90;;;;;;4973842;28;20034;-84
2023/08/27 07:43:45;;;;;;;9.65;8.75;;;17.10;99.90;;;;;;4973443;28;21173;-85
2023/08/27 07:46:10;;;;;;;14.30;8.65;;;17.30;99.90;;;;;;4969086;28;20388;-85
2023/08/27 07:48:36;;;;;;;10.90;8.63;;;17.10;99.90;;;;;;4959103;28;20204;-84
2023/08/27 07:51:03;;;;;;;12.35;10.05;;;17.20;99.90;;;;;;4970568;28;20023;-85
2023/08/27 07:53:28;;;;;;;10.10;8.75;;;17.10;99.90;;;;;;4966486;28;20487;-84
2023/08/27 07:55:55;;;;;;;11.98;8.60;;;17.20;99.90;;;;;;4956125;28;20035;-84
2023/08/27 07:58:21;;;;;;;11.02;8.55;;;17.20;99.90;;;;;;4962775;28;20403;-83
2023/08/27 08:00:46;;;;;;;8.18;7.25;;;17.60;99.90;;;;;;4974196;28;20030;-84
2023/08/27 08:03:12;;;;;;;8.70;7.93;;;17.20;99.90;;;;;;4971705;28;20383;-83
2023/08/27 08:05:38;;;;;;;8.25;7.55;;;17.30;99.90;;;;;;4975378;28;20058;-84
2023/08/27 08:08:04;;;;;;;9.23;8.02;;;17.30;99.90;;;;;;4973330;28;20039;-84
2023/08/27 08:10:29;;;;;;;12.73;8.43;;;17.30;99.90;;;;;;4960742;28;20038;-83
2023/08/27 08:12:55;;;;;;;17.90;9.43;;;17.40;99.90;;;;;;4969953;28;20077;-83
2023/08/27 08:15:20;;;;;;;9.43;8.10;;;17.40;99.90;;;;;;4974388;28;20451;-84
2023/08/27 08:17:46;;;;;;;8.88;8.07;;;17.50;99.90;;;;;;4973471;28;20372;-84
2023/08/27 08:20:12;;;;;;;9.65;7.85;;;17.50;99.90;;;;;;4972962;28;20118;-84
2023/08/27 08:22:39;;;;;;;12.90;8.13;;;17.50;99.90;;;;;;4972490;28;20042;-84
2023/08/27 08:25:06;;;;;;;10.10;7.70;;;17.60;99.90;;;;;;4973603;28;20038;-84
2023/08/27 08:27:32;;;;;;;8.57;7.82;;;17.40;99.90;;;;;;4970016;28;20102;-82
2023/08/27 08:29:58;;;;;;;9.07;6.88;;;17.30;99.90;;;;;;4971205;28;20434;-82
2023/08/27 08:32:23;;;;;;;11.85;7.55;;;17.40;99.90;;;;;;4971501;28;20063;-83
2023/08/27 08:34:49;;;;;;;12.65;8.23;;;17.40;99.90;;;;;;4972060;28;20034;-82
2023/08/27 08:37:14;;;;;;;9.00;8.20;;;17.30;99.90;;;;;;4970267;28;20262;-84
2023/08/27 08:39:40;;;;;;;10.13;8.88;;;17.30;99.90;;;;;;4971329;28;20422;-85
2023/08/27 08:42:15;;;;;;;9.95;8.95;;;17.30;99.90;;;;;;4970593;28;20106;-85
2023/08/27 08:45:09;;;;;;;11.65;6.68;;;17.30;99.90;;;;;;4963799;28;20038;-85
2023/08/27 08:47:36;;;;;;;11.77;5.38;;;17.20;99.90;;;;;;4963129;28;20034;-85
2023/08/27 08:50:06;;;;;;;2.85;2.47;;;18.00;99.90;;;;;;4966194;28;20034;-86
2023/08/27 08:52:42;;;;;;;3.72;1.95;;;17.10;99.90;;;;;;4967464;28;20101;-85
2023/08/27 08:55:10;;;;;;;2.58;1.92;;;17.20;99.90;;;;;;4964801;28;20485;-85
2023/08/27 08:57:56;;;;;;;1.60;1.00;;;17.10;99.90;;;;;;4964469;28;20054;-83
2023/08/27 09:00:22;;;;;;;2.67;1.63;;;17.10;99.90;;;;;;4966848;28;20035;-86
2023/08/27 09:02:49;;;;;;;1.85;0.90;;;17.10;99.90;;;;;;4962946;28;20018;-85
2023/08/27 09:05:17;;;;;;;1.40;0.95;;;17.10;99.90;;;;;;4969129;28;20031;-85
2023/08/27 09:07:46;;;;;;;0.70;0.70;;;17.10;99.90;;;;;;4969841;28;20023;-85
2023/08/27 09:10:13;;;;;;;1.02;0.88;;;17.10;99.90;;;;;;4968442;28;20051;-84
2023/08/27 09:12:40;;;;;;;2.00;1.00;;;17.10;99.90;;;;;;4972349;28;20026;-84
2023/08/27 09:15:09;;;;;;;1.02;0.93;;;17.10;99.90;;;;;;4971056;28;20026;-83
2023/08/27 09:17:35;;;;;;;3.13;1.15;;;17.10;99.90;;;;;;4972388;28;20475;-81
2023/08/27 09:20:00;;;;;;;0.50;0.50;;;17.70;99.90;;;;;;4970141;28;20050;-83
2023/08/27 09:22:26;;;;;;;0.88;0.70;;;17.10;99.90;;;;;;4972004;28;20403;-82
2023/08/27 09:24:52;;;;;;;1.13;0.90;;;17.10;99.90;;;;;;4969770;28;20038;-83
2023/08/27 09:27:19;;;;;;;0.43;0.43;;;17.10;99.90;;;;;;4972474;28;20065;-82
2023/08/27 09:29:46;;;;;;;1.13;0.63;;;18.00;99.90;;;;;;4971877;28;20018;-83
2023/08/27 09:32:23;;;;;;;0.60;0.60;;;17.10;99.90;;;;;;4971246;28;20055;-83
2023/08/27 09:34:56;;;;;;;1.08;0.63;;;17.30;99.90;;;;;;4972720;28;20031;-83
2023/08/27 09:37:22;;;;;;;1.33;0.90;;;17.20;99.90;;;;;;4973570;28;20467;-83
2023/08/27 09:39:49;;;;;;;0.40;0.40;;;17.20;99.90;;;;;;4981250;28;20049;-83
2023/08/27 09:42:16;;;;;;;1.42;0.60;;;17.30;99.90;;;;;;4985805;28;20030;-83
2023/08/27 09:44:54;;;;;;;0.65;0.60;;;17.30;99.90;;;;;;4975174;28;20386;-84
2023/08/27 09:47:32;;;;;;;1.85;0.50;;;17.30;99.90;;;;;;4971493;28;20073;-83
2023/08/27 09:50:02;;;;;;;0.68;0.65;;;17.20;99.90;;;;;;4971793;28;20042;-86
2023/08/27 09:52:28;;;;;;;2.93;0.73;;;17.20;99.90;;;;;;4972129;28;20538;-85
2023/08/27 09:54:54;;;;;;;0.90;0.90;;;17.20;99.90;;;;;;4972369;28;20106;-83
2023/08/27 09:57:20;;;;;;;1.33;0.80;;;17.20;99.90;;;;;;4970267;28;20050;-84
2023/08/27 09:59:46;;;;;;;1.60;0.90;;;17.20;99.90;;;;;;4972128;28;20468;-83
2023/08/27 10:02:15;;;;;;;1.33;0.77;;;17.20;99.90;;;;;;4968763;28;20034;-84
2023/08/27 10:04:49;;;;;;;1.65;0.95;;;17.20;99.90;;;;;;4968974;28;20028;-83
2023/08/27 10:07:16;;;;;;;1.10;0.60;;;17.10;99.90;;;;;;4971116;28;20041;-83
2023/08/27 10:09:41;;;;;;;2.33;0.90;;;17.50;99.90;;;;;;4969515;28;20037;-82
2023/08/27 10:12:10;;;;;;;0.70;0.65;;;17.10;99.90;;;;;;4971048;28;20027;-84
2023/08/27 10:14:40;;;;;;;1.48;1.13;;;17.10;99.90;;;;;;4969560;28;20047;-84
2023/08/27 10:17:06;;;;;;;1.10;1.00;;;17.00;99.90;;;;;;4972414;28;20053;-84
2023/08/27 10:19:35;;;;;;;0.90;0.77;;;17.00;99.90;;;;;;4972753;28;20066;-83
2023/08/27 10:22:01;;;;;;;1.55;1.30;;;17.00;99.90;;;;;;4975647;28;20043;-82
2023/08/27 10:24:29;;;;;;;1.13;1.10;;;16.90;99.90;;;;;;4973194;28;20035;-81
2023/08/27 10:26:57;;;;;;;2.03;1.05;;;16.80;99.90;;;;;;4974758;28;20368;-82
2023/08/27 10:29:24;;;;;;;1.70;0.90;;;16.70;99.90;;;;;;4974423;28;20467;-83
2023/08/27 10:31:51;;;;;;;1.10;0.90;;;16.60;99.90;;;;;;4975034;28;20073;-82
2023/08/27 10:34:17;;;;;;;1.38;1.13;;;16.60;99.90;;;;;;4974293;28;20115;-83
2023/08/27 10:36:44;;;;;;;1.48;1.23;;;16.60;99.90;;;;;;4974839;28;20113;-83
2023/08/27 10:39:10;;;;;;;5.75;1.98;;;16.80;99.90;;;;;;4975637;28;20068;-82
2023/08/27 10:41:36;;;;;;;2.33;1.20;;;16.70;99.90;;;;;;4972656;28;20030;-82
2023/08/27 10:44:02;;;;;;;2.33;1.30;;;16.60;99.90;;;;;;4973947;28;20089;-83
2023/08/27 10:46:28;;;;;;;2.63;1.00;;;16.60;99.90;;;;;;4970612;28;20057;-82
2023/08/27 10:48:54;;;;;;;1.33;0.80;;;16.40;99.90;;;;;;4975348;28;20428;-82
2023/08/27 10:51:26;;;;;;;1.25;1.08;;;16.60;99.90;;;;;;4972536;28;20074;-83
2023/08/27 10:53:52;;;;;;;2.88;0.77;;;16.60;99.90;;;;;;4960361;28;20118;-82
2023/08/27 10:56:33;;;;;;;4.00;0.88;;;16.60;99.90;;;;;;4972401;28;20548;-82
2023/08/27 10:59:10;;;;;;;1.75;0.95;;;16.60;99.90;;;;;;4965736;28;20054;-82
2023/08/27 11:01:37;;;;;;;0.75;0.70;;;16.60;99.90;;;;;;4973548;28;20494;-82
2023/08/27 11:04:05;;;;;;;2.05;0.75;;;16.60;99.90;;;;;;4975757;28;20138;-82
2023/08/27 11:06:33;;;;;;;0.68;0.68;;;16.60;99.90;;;;;;4968265;28;20546;-81
2023/08/27 11:08:59;;;;;;;1.98;0.85;;;16.60;99.90;;;;;;4955546;29;20035;-83
2023/08/27 11:11:26;;;;;;;3.83;1.38;;;16.50;99.90;;;;;;4961725;28;20047;-84
2023/08/27 11:14:05;;;;;;;1.15;1.00;;;16.60;99.90;;;;;;4970098;28;20032;-84
2023/08/27 11:16:30;;;;;;;1.58;0.88;;;16.50;99.90;;;;;;4968889;28;20037;-84
2023/08/27 11:18:56;;;;;;;2.75;1.05;;;16.50;99.90;;;;;;4963939;28;20039;-83
2023/08/27 11:21:25;;;;;;;1.60;1.02;;;16.70;99.90;;;;;;4967724;28;20430;-84
2023/08/27 11:24:12;;;;;;;0.60;0.60;;;16.60;99.90;;;;;;4973047;28;20559;-83
2023/08/27 11:26:39;;;;;;;0.77;0.70;;;16.60;99.90;;;;;;4971557;28;20121;-83
2023/08/27 11:29:07;;;;;;;1.77;1.00;;;16.60;99.90;;;;;;4971344;28;20130;-83
2023/08/27 11:31:33;;;;;;;1.67;0.98;;;16.70;99.90;;;;;;4964903;28;20035;-83
2023/08/27 11:34:01;;;;;;;1.70;0.85;;;16.80;99.90;;;;;;4964052;28;20509;-83
2023/08/27 11:36:26;;;;;;;4.03;0.90;;;16.80;99.90;;;;;;4962032;28;20118;-83
2023/08/27 11:38:58;;;;;;;4.57;1.27;;;16.90;99.90;;;;;;4955140;28;20125;-83
2023/08/27 11:41:24;;;;;;;1.42;1.00;;;16.90;99.90;;;;;;4969338;28;20053;-83
2023/08/27 11:43:56;;;;;;;1.20;1.10;;;16.90;99.90;;;;;;4974935;28;20051;-83
2023/08/27 11:46:22;;;;;;;4.28;1.42;;;17.00;99.90;;;;;;4980003;28;20042;-84
2023/08/27 11:48:48;;;;;;;1.00;0.90;;;17.00;99.90;;;;;;4975260;28;20023;-82
2023/08/27 11:51:17;;;;;;;1.95;1.63;;;17.40;99.90;;;;;;4971163;28;20069;-82
2023/08/27 11:53:44;;;;;;;3.67;1.02;;;17.00;99.90;;;;;;4980488;28;20042;-82
2023/08/27 11:56:09;;;;;;;1.23;0.90;;;18.00;99.90;;;;;;4980824;28;20058;-82
2023/08/27 11:58:35;;;;;;;1.58;1.05;;;17.10;99.90;;;;;;4968919;28;20480;-81
2023/08/27 12:01:01;;;;;;;2.85;1.10;;;17.10;99.90;;;;;;4964655;28;20023;-82
2023/08/27 12:03:26;;;;;;;1.42;1.00;;;17.10;99.90;;;;;;4974547;28;20058;-82
2023/08/27 12:05:52;;;;;;;1.92;1.25;;;17.10;99.90;;;;;;4971615;28;20033;-82
2023/08/27 12:08:18;;;;;;;2.60;1.15;;;17.20;99.90;;;;;;4958229;28;20055;-82
2023/08/27 12:10:45;;;;;;;3.13;1.10;;;17.10;99.90;;;;;;4961489;28;20033;-81
2023/08/27 12:13:10;;;;;;;2.97;1.00;;;17.20;99.90;;;;;;4974065;28;20027;-83
2023/08/27 12:15:36;;;;;;;0.95;0.77;;;17.30;99.90;;;;;;4971183;28;20034;-82
2023/08/27 12:18:06;;;;;;;1.65;1.08;;;17.30;99.90;;;;;;4973857;28;20451;-86
2023/08/27 12:20:32;;;;;;;1.67;0.98;;;17.40;99.90;;;;;;4967372;28;20035;-82
2023/08/27 12:23:12;;;;;;;3.65;1.17;;;17.50;99.90;;;;;;4973089;28;20050;-82
2023/08/27 12:25:51;;;;;;;4.28;1.30;;;17.60;99.90;;;;;;4967976;28;20062;-83
2023/08/27 12:28:18;;;;;;;1.20;1.10;;;17.70;99.90;;;;;;4964151;28;20031;-83
2023/08/27 12:30:53;;;;;;;3.33;1.40;;;17.70;99.90;;;;;;4971781;28;20035;-83
2023/08/27 12:33:19;;;;;;;5.70;1.48;;;17.80;99.90;;;;;;4969344;28;20026;-83
2023/08/27 12:35:49;;;;;;;2.63;1.15;;;18.00;99.90;;;;;;4967917;28;20034;-83
2023/08/27 12:38:15;;;;;;;3.45;2.00;;;18.00;99.90;;;;;;4964723;28;20055;-82
2023/08/27 12:40:40;;;;;;;4.30;1.73;;;18.00;99.90;;;;;;4970010;28;20039;-82
2023/08/27 12:43:06;;;;;;;3.78;1.65;;;18.40;99.90;;;;;;4972394;28;20043;-82
2023/08/27 12:45:31;;;;;;;3.80;1.70;;;17.90;99.90;;;;;;4971351;28;20039;-81
2023/08/27 12:48:03;;;;;;;3.92;1.70;;;18.10;99.90;;;;;;4956501;28;20367;-82